Time;durP1;ratioP1;P1;durP2;ratioP2;P2;SDS_P1;SDS_P2;PMS_P1;PMS_P2;Temp;Humidity;BMP_temperature;BMP_pressure;BME280_temperature;BME280_humidity;BME280_pressure;Samples;Min_cycle;Max_cycle;Signal;HPM_P1;HPM_P2
2022/12/14 00:01:16;;;;;;;1.27;1.27;;;;;;;-1.96;97.21;99149.41;5021040;28;20594;-50
2022/12/14 00:03:44;;;;;;;0.57;0.57;;;;;;;-2.01;97.22;99138.13;5031627;28;20451;-51
2022/12/14 00:06:13;;;;;;;1.03;0.67;;;;;;;-2.05;97.57;99128.59;5019912;28;20459;-50
2022/12/14 00:08:40;;;;;;;3.03;2.93;;;;;;;-2.02;97.54;99122.50;5025286;28;20472;-50
2022/12/14 00:11:08;;;;;;;2.60;1.67;;;;;;;-2.00;96.96;99124.25;5025508;28;20464;-54
2022/12/14 00:13:34;;;;;;;0.83;0.83;;;;;;;-2.00;97.43;99112.97;5019538;28;20456;-53
2022/12/14 00:16:06;;;;;;;1.93;0.47;;;;;;;-2.05;97.80;99101.69;5019131;28;20456;-52
2022/12/14 00:18:33;;;;;;;0.67;0.67;;;;;;;-1.99;97.36;99102.56;5023779;28;20505;-52
2022/12/14 00:21:08;;;;;;;0.53;0.53;;;;;;;-2.03;97.09;99094.75;5026158;28;20838;-53
2022/12/14 00:23:36;;;;;;;0.40;0.30;;;;;;;-2.02;97.42;99088.69;5022640;28;20512;-53
2022/12/14 00:26:09;;;;;;;7.33;1.10;;;;;;;-1.97;97.40;99082.59;5018785;28;20459;-54
2022/12/14 00:28:36;;;;;;;0.40;0.37;;;;;;;-2.02;97.25;99073.94;5020585;28;21010;-54
2022/12/14 00:31:03;;;;;;;0.70;0.40;;;;;;;-2.08;97.47;99079.97;5025264;28;20811;-54
2022/12/14 00:33:30;;;;;;;6.50;1.23;;;;;;;-2.08;97.50;99082.56;5023698;28;20539;-55
2022/12/14 00:35:56;;;;;;;1.13;0.70;;;;;;;-2.04;97.03;99093.00;5027015;28;20805;-54
2022/12/14 00:38:23;;;;;;;7.73;1.43;;;;;;;-1.92;96.74;99082.59;5023285;28;21012;-54
2022/12/14 00:40:50;;;;;;;0.30;0.30;;;;;;;-2.05;97.28;99091.28;5018876;28;20455;-54
2022/12/14 00:43:16;;;;;;;0.93;0.87;;;;;;;-2.10;97.47;99092.09;5018847;28;20479;-54
2022/12/14 00:45:44;;;;;;;3.87;3.57;;;;;;;-2.10;97.39;99078.22;5030329;28;20502;-55
2022/12/14 00:48:11;;;;;;;0.57;0.57;;;;;;;-2.07;97.74;99080.84;5032146;28;20472;-55
2022/12/14 00:50:38;;;;;;;2.07;1.90;;;;;;;-2.01;97.81;99093.00;5018269;28;20456;-54
2022/12/14 00:53:04;;;;;;;2.43;0.80;;;;;;;-2.06;97.74;99081.69;5023848;28;20456;-55
2022/12/14 00:55:42;;;;;;;0.30;0.20;;;;;;;-2.08;97.53;99077.38;5018118;28;20451;-54
2022/12/14 00:58:11;;;;;;;1.97;1.80;;;;;;;-2.02;97.73;99066.13;5018979;28;20499;-54
2022/12/14 01:00:38;;;;;;;1.50;0.70;;;;;;;-2.02;97.54;99075.66;5024917;28;20514;-54
2022/12/14 01:03:06;;;;;;;0.57;0.40;;;;;;;-2.00;96.88;99073.91;5025060;28;20451;-55
2022/12/14 01:05:33;;;;;;;1.53;1.43;;;;;;;-2.01;97.66;99072.19;5024597;28;20966;-54
2022/12/14 01:08:00;;;;;;;0.73;0.40;;;;;;;-1.93;97.39;99071.31;5024473;28;20448;-53
2022/12/14 01:10:26;;;;;;;0.63;0.57;;;;;;;-1.84;97.15;99068.72;5018416;28;20451;-54
2022/12/14 01:12:53;;;;;;;2.03;1.23;;;;;;;-1.91;96.86;99055.72;5017842;28;20462;-54
2022/12/14 01:15:19;;;;;;;0.40;0.40;;;;;;;-1.93;96.99;99045.28;5024550;28;20456;-54
2022/12/14 01:17:46;;;;;;;1.73;1.63;;;;;;;-1.92;97.53;99036.63;5024243;28;20495;-54
2022/12/14 01:20:12;;;;;;;2.30;0.53;;;;;;;-1.85;97.06;99040.09;5018383;28;20452;-55
2022/12/14 01:22:39;;;;;;;3.40;0.87;;;;;;;-1.90;96.75;99037.50;5027698;28;20452;-55
2022/12/14 01:25:05;;;;;;;0.40;0.40;;;;;;;-1.84;96.63;99040.09;5023603;28;20530;-55
2022/12/14 01:27:32;;;;;;;2.03;1.43;;;;;;;-1.87;96.40;99045.31;5024640;28;20517;-54
2022/12/14 01:29:58;;;;;;;3.33;1.27;;;;;;;-1.79;96.69;99042.69;5018842;28;20475;-54
2022/12/14 01:32:25;;;;;;;3.73;1.47;;;;;;;-1.85;96.75;99046.16;5018594;28;20457;-54
2022/12/14 01:34:51;;;;;;;2.63;2.43;;;;;;;-1.79;96.44;99042.69;5023336;28;20479;-55
2022/12/14 01:37:17;;;;;;;1.13;0.87;;;;;;;-1.92;96.59;99044.44;5024038;28;20462;-55
2022/12/14 01:39:45;;;;;;;0.80;0.67;;;;;;;-1.91;97.09;99045.31;5018509;28;20526;-52
2022/12/14 01:42:13;;;;;;;0.87;0.87;;;;;;;-2.00;96.67;99035.75;5016998;28;20452;-52
2022/12/14 01:44:43;;;;;;;3.20;3.03;;;;;;;-2.03;96.91;99040.94;5027081;28;20827;-52
2022/12/14 01:47:19;;;;;;;0.93;0.30;;;;;;;-2.00;96.77;99029.66;5040810;28;20455;-52
2022/12/14 01:49:55;;;;;;;0.50;0.50;;;;;;;-1.95;97.13;99034.00;5021600;28;20463;-52
2022/12/14 01:52:35;;;;;;;2.00;1.27;;;;;;;-1.97;97.41;99029.66;5018939;28;20506;-53
2022/12/14 01:55:08;;;;;;;0.20;0.10;;;;;;;-1.97;97.66;99030.53;5023385;28;20525;-52
2022/12/14 01:57:49;;;;;;;0.30;0.30;;;;;;;-1.91;97.40;99032.28;5018441;28;20451;-51
2022/12/14 02:00:16;;;;;;;1.23;0.93;;;;;;;-1.94;97.13;99017.50;5016916;28;20452;-52
2022/12/14 02:02:50;;;;;;;1.53;1.43;;;;;;;-2.05;97.28;99016.66;5024454;28;20452;-52
2022/12/14 02:05:19;;;;;;;0.50;0.40;;;;;;;-1.91;97.75;99021.88;5025218;28;20476;-51
2022/12/14 02:07:49;;;;;;;0.67;0.67;;;;;;;-1.96;97.32;99018.38;5022034;28;20448;-52
2022/12/14 02:10:16;;;;;;;1.40;1.40;;;;;;;-1.96;96.84;99018.38;5016940;28;20455;-52
2022/12/14 02:12:46;;;;;;;0.40;0.40;;;;;;;-1.89;96.58;99012.31;5020829;28;20515;-52
2022/12/14 02:15:14;;;;;;;0.30;0.30;;;;;;;-1.95;96.83;99000.16;5020257;28;20451;-52
2022/12/14 02:17:45;;;;;;;0.20;0.20;;;;;;;-1.89;96.61;99004.50;5019539;28;20507;-49
2022/12/14 02:20:14;;;;;;;0.30;0.30;;;;;;;-1.91;96.55;99011.47;5021269;28;20879;-52
2022/12/14 02:22:50;;;;;;;1.47;1.20;;;;;;;-1.89;96.24;99001.91;5032905;28;20447;-50
2022/12/14 02:25:45;;;;;;;0.50;0.50;;;;;;;-1.87;96.57;98995.84;5023933;28;20506;-52
2022/12/14 02:28:44;;;;;;;1.70;1.60;;;;;;;-1.88;96.67;99001.91;5020296;28;20590;-48
2022/12/14 02:31:20;;;;;;;0.30;0.30;;;;;;;-1.94;97.05;98985.41;5015228;28;20437;-49
2022/12/14 02:34:13;;;;;;;1.93;1.37;;;;;;;-1.89;96.81;98981.09;5013419;28;20444;-48
2022/12/14 02:37:03;;;;;;;0.60;0.60;;;;;;;-1.89;97.01;98973.28;5013459;28;20436;-49
2022/12/14 02:39:57;;;;;;;1.23;1.13;;;;;;;-1.81;96.67;98976.72;5012894;28;21017;-52
2022/12/14 02:42:36;;;;;;;0.97;0.97;;;;;;;-1.93;97.22;98981.94;5013858;28;20511;-51
2022/12/14 02:45:25;;;;;;;1.27;1.27;;;;;;;-1.95;96.98;98981.94;5025319;28;20861;-51
2022/12/14 02:48:13;;;;;;;0.43;0.43;;;;;;;-1.98;97.36;98973.25;5013281;28;20448;-52
2022/12/14 02:51:11;;;;;;;1.40;0.50;;;;;;;-1.86;97.63;98973.25;5026214;28;20507;-52
2022/12/14 02:54:03;;;;;;;1.30;1.30;;;;;;;-1.91;97.51;98968.06;4996595;28;20456;-51
2022/12/14 02:56:42;;;;;;;1.77;0.70;;;;;;;-1.84;97.46;98971.53;5006438;28;20465;-53
2022/12/14 02:59:10;;;;;;;0.37;0.33;;;;;;;-1.90;97.42;98966.34;5021306;28;20498;-49
2022/12/14 03:01:38;;;;;;;2.30;2.20;;;;;;;-1.94;97.66;98959.38;5020236;28;20472;-49
2022/12/14 03:04:05;;;;;;;3.80;1.20;;;;;;;-1.91;97.41;98954.19;5016878;28;20457;-48
2022/12/14 03:06:32;;;;;;;1.40;0.73;;;;;;;-1.98;97.94;98937.69;5014236;28;20815;-48
2022/12/14 03:09:07;;;;;;;6.23;1.43;;;;;;;-1.87;97.40;98935.09;5006097;28;20889;-52
2022/12/14 03:11:36;;;;;;;1.70;1.70;;;;;;;-1.97;97.80;98935.94;5016510;28;20817;-51
2022/12/14 03:14:26;;;;;;;1.00;0.27;;;;;;;-1.94;97.65;98930.72;5032405;28;20452;-51
2022/12/14 03:16:55;;;;;;;0.30;0.30;;;;;;;-1.93;97.96;98937.66;5024914;28;20456;-51
2022/12/14 03:19:31;;;;;;;1.03;0.97;;;;;;;-1.92;97.81;98936.78;5025835;28;20965;-52
2022/12/14 03:22:06;;;;;;;0.20;0.20;;;;;;;-1.90;97.79;98942.91;5012903;28;20444;-51
2022/12/14 03:24:42;;;;;;;0.97;0.60;;;;;;;-1.92;97.54;98934.19;5029838;28;20446;-51
2022/12/14 03:27:19;;;;;;;0.40;0.40;;;;;;;-1.98;97.42;98924.66;5032105;28;20493;-51
2022/12/14 03:29:59;;;;;;;0.47;0.47;;;;;;;-1.98;97.21;98924.66;5019415;28;20452;-52
2022/12/14 03:32:29;;;;;;;1.60;1.20;;;;;;;-1.88;97.50;98920.31;5019071;28;20448;-51
2022/12/14 03:35:03;;;;;;;0.53;0.50;;;;;;;-1.89;97.67;98919.47;5032138;28;20448;-51
2022/12/14 03:37:38;;;;;;;2.67;1.63;;;;;;;-1.84;97.58;98916.84;5027883;28;20931;-52
2022/12/14 03:40:10;;;;;;;0.23;0.23;;;;;;;-1.93;97.34;98904.69;5023898;28;20490;-49
2022/12/14 03:42:46;;;;;;;2.83;1.37;;;;;;;-1.88;97.21;98909.91;5012694;28;20448;-49
2022/12/14 03:45:24;;;;;;;0.63;0.63;;;;;;;-1.94;98.05;98917.72;5016786;28;20454;-52
2022/12/14 03:48:00;;;;;;;1.07;0.87;;;;;;;-1.90;97.72;98929.88;5043399;28;20447;-49
2022/12/14 03:50:43;;;;;;;0.30;0.30;;;;;;;-1.95;97.90;98926.38;5015787;28;20550;-49
2022/12/14 03:53:38;;;;;;;1.63;1.63;;;;;;;-1.76;97.38;98916.84;5031673;28;20449;-50
2022/12/14 03:56:27;;;;;;;6.00;0.50;;;;;;;-1.84;97.12;98914.25;5012162;28;20444;-49
2022/12/14 03:59:01;;;;;;;0.67;0.30;;;;;;;-1.90;97.54;98909.06;5017600;28;20985;-49
2022/12/14 04:01:58;;;;;;;0.60;0.60;;;;;;;-1.90;97.52;98894.28;5018528;28;20448;-50
2022/12/14 04:04:53;;;;;;;1.60;0.73;;;;;;;-1.85;97.78;98892.53;5020968;28;20476;-49
2022/12/14 04:07:31;;;;;;;1.37;0.83;;;;;;;-1.74;97.30;98889.94;5012519;28;20449;-50
2022/12/14 04:19:00;;;;;;;4.37;1.23;;;;;;;-1.82;97.02;98892.53;5021559;28;20491;-50
2022/12/14 04:21:46;;;;;;;0.97;0.90;;;;;;;-1.73;96.39;98907.28;5017714;28;20448;-50
2022/12/14 04:27:20;;;;;;;0.83;0.63;;;;;;;-1.32;95.46;98919.34;5015560;28;20452;-49
2022/12/14 04:29:55;;;;;;;0.30;0.30;;;;;;;-1.19;94.87;98918.41;5028633;28;20460;-50
2022/12/14 04:32:37;;;;;;;1.23;1.13;;;;;;;-1.16;94.39;98901.91;5029280;28;20455;-49
2022/12/14 04:35:17;;;;;;;1.40;0.50;;;;;;;-1.14;94.05;98901.00;5035346;28;20479;-49
2022/12/14 04:37:49;;;;;;;0.40;0.40;;;;;;;-0.86;94.28;98901.75;5035051;28;20479;-50
2022/12/14 04:40:21;;;;;;;4.20;1.37;;;;;;;-0.97;93.62;98907.00;5022759;28;20488;-50
2022/12/14 04:43:04;;;;;;;2.27;2.13;;;;;;;-0.88;93.74;98893.06;5021826;28;20451;-49
2022/12/14 04:45:38;;;;;;;0.40;0.37;;;;;;;-0.94;92.69;98896.59;5034947;28;20506;-50
2022/12/14 04:48:30;;;;;;;0.33;0.33;;;;;;;-0.88;92.88;98897.41;5034832;28;20468;-50
2022/12/14 04:51:21;;;;;;;18.13;2.80;;;;;;;-0.87;93.10;98888.72;5033616;28;20452;-50
2022/12/14 04:53:54;;;;;;;2.10;1.23;;;;;;;-0.98;92.87;98880.94;5028245;28;20506;-49
2022/12/14 04:56:28;;;;;;;1.67;1.53;;;;;;;-0.91;93.02;98891.34;5026402;28;20558;-50
2022/12/14 04:58:55;;;;;;;0.70;0.63;;;;;;;-0.96;93.22;98892.22;5021026;28;20529;-50
2022/12/14 05:01:31;;;;;;;0.40;0.40;;;;;;;-0.83;93.12;98893.91;5021933;28;20876;-49
2022/12/14 05:04:08;;;;;;;0.30;0.20;;;;;;;-0.67;92.78;98899.91;5029795;28;20559;-49
2022/12/14 05:07:00;;;;;;;0.80;0.50;;;;;;;-0.69;92.49;98894.69;5021269;28;21008;-50
2022/12/14 05:09:30;;;;;;;3.33;0.97;;;;;;;-0.49;92.22;98891.09;5022055;28;20456;-50
2022/12/14 05:12:05;;;;;;;2.00;0.93;;;;;;;-0.47;92.10;98892.81;5021433;28;20451;-49
2022/12/14 05:14:48;;;;;;;0.63;0.63;;;;;;;-0.60;92.09;98897.25;5034458;28;20448;-50
2022/12/14 05:17:15;;;;;;;1.90;0.43;;;;;;;-0.87;92.07;98893.94;5024356;28;20483;-50
2022/12/14 05:19:49;;;;;;;0.60;0.60;;;;;;;-0.58;92.24;98892.00;5027544;28;20504;-49
2022/12/14 05:22:16;;;;;;;0.50;0.50;;;;;;;-0.70;91.01;98894.69;5025991;28;20452;-53
2022/12/14 05:24:43;;;;;;;0.90;0.90;;;;;;;-0.96;92.26;98887.91;5021035;28;20450;-49
2022/12/14 05:27:09;;;;;;;1.50;1.50;;;;;;;-0.92;92.44;98893.97;5022516;28;20453;-51
2022/12/14 05:29:36;;;;;;;0.63;0.63;;;;;;;-0.73;92.41;98884.28;5031641;28;20470;-50
2022/12/14 05:32:03;;;;;;;0.57;0.47;;;;;;;-0.98;92.05;98875.72;5033977;28;20444;-51
2022/12/14 05:34:29;;;;;;;1.87;0.90;;;;;;;-0.90;91.84;98863.53;5028823;28;21016;-50
2022/12/14 05:36:56;;;;;;;1.50;1.50;;;;;;;-1.21;93.75;98857.63;5014622;28;20452;-49
2022/12/14 05:39:23;;;;;;;0.50;0.50;;;;;;;-1.14;94.39;98838.44;5014328;28;20642;-49
2022/12/14 05:41:49;;;;;;;0.40;0.40;;;;;;;-1.14;93.81;98838.44;5026643;28;20452;-50
2022/12/14 05:44:16;;;;;;;0.60;0.60;;;;;;;-1.25;94.46;98835.03;5016491;28;20452;-51
2022/12/14 05:46:42;;;;;;;4.70;0.50;;;;;;;-1.26;95.04;98841.13;5046150;28;20497;-51
2022/12/14 05:49:09;;;;;;;1.00;0.93;;;;;;;-1.13;94.83;98849.75;5029440;28;20475;-52
2022/12/14 05:51:35;;;;;;;0.40;0.40;;;;;;;-1.21;94.29;98840.25;5026534;28;20494;-49
2022/12/14 05:54:02;;;;;;;0.70;0.70;;;;;;;-1.17;94.38;98842.81;5027647;28;20452;-50
2022/12/14 05:56:28;;;;;;;1.50;1.50;;;;;;;-1.19;94.32;98832.41;5026543;28;20447;-49
2022/12/14 05:58:55;;;;;;;3.80;0.50;;;;;;;-1.27;94.57;98831.56;5033247;28;20491;-50
2022/12/14 06:01:21;;;;;;;0.50;0.50;;;;;;;-1.45;95.89;98819.50;5021215;28;20844;-49
2022/12/14 06:03:51;;;;;;;10.40;0.97;;;;;;;-1.37;96.23;98812.53;5025913;28;20475;-50
2022/12/14 06:06:17;;;;;;;0.50;0.50;;;;;;;-1.43;97.83;98824.69;5002738;28;20453;-50
2022/12/14 06:08:44;;;;;;;3.43;1.33;;;;;;;-1.61;99.28;98813.50;5033016;28;20480;-51
2022/12/14 06:11:17;;;;;;;5.93;2.40;;;;;;;-1.61;100.00;98804.81;5019822;28;20564;-52
2022/12/14 06:13:44;;;;;;;1.30;1.20;;;;;;;-1.68;100.00;98793.53;5033219;28;20451;-52
2022/12/14 06:16:22;;;;;;;1.50;1.47;;;;;;;-1.81;100.00;98791.84;5020023;28;20800;-52
2022/12/14 06:18:54;;;;;;;2.10;2.00;;;;;;;-1.93;100.00;98779.72;5023437;28;21020;-51
2022/12/14 06:21:25;;;;;;;0.73;0.67;;;;;;;-2.02;100.00;98781.50;5026756;28;20456;-52
2022/12/14 06:23:53;;;;;;;0.70;0.70;;;;;;;-2.05;100.00;98779.78;5006966;28;20481;-50
2022/12/14 06:26:20;;;;;;;4.43;1.80;;;;;;;-2.24;100.00;98786.75;5019706;28;20451;-49
2022/12/14 06:28:46;;;;;;;1.27;1.17;;;;;;;-2.10;100.00;98779.78;5032970;28;20506;-50
2022/12/14 06:31:15;;;;;;;1.30;0.83;;;;;;;-1.97;100.00;98767.59;5019737;28;20578;-50
2022/12/14 06:33:42;;;;;;;0.30;0.30;;;;;;;-2.00;100.00;98767.63;5032301;28;20451;-50
2022/12/14 06:36:22;;;;;;;0.53;0.53;;;;;;;-2.11;100.00;98765.03;5014465;28;20452;-50
2022/12/14 06:38:50;;;;;;;0.30;0.30;;;;;;;-2.05;100.00;98768.50;5026144;28;20481;-50
2022/12/14 06:41:17;;;;;;;0.30;0.30;;;;;;;-2.15;100.00;98754.66;5008151;28;20449;-50
2022/12/14 06:43:43;;;;;;;0.73;0.73;;;;;;;-1.93;100.00;98753.69;5026254;28;20456;-50
2022/12/14 06:46:17;;;;;;;1.50;0.67;;;;;;;-1.92;100.00;98747.66;5039612;28;20481;-51
2022/12/14 06:48:51;;;;;;;0.97;0.53;;;;;;;-1.86;100.00;98741.53;5017027;28;20522;-51
2022/12/14 06:51:19;;;;;;;1.10;1.10;;;;;;;-2.02;100.00;98753.75;5018517;28;20440;-50
2022/12/14 06:53:49;;;;;;;2.47;2.27;;;;;;;-1.94;100.00;98757.16;5025895;28;20476;-51
2022/12/14 06:56:16;;;;;;;1.47;1.37;;;;;;;-1.92;100.00;98760.66;5023232;28;20451;-52
2022/12/14 06:58:43;;;;;;;2.50;2.40;;;;;;;-1.95;100.00;98754.56;5028027;28;20486;-51
2022/12/14 07:01:16;;;;;;;6.00;2.60;;;;;;;-2.08;100.00;98749.41;5023677;28;20502;-51
2022/12/14 07:03:47;;;;;;;3.60;0.70;;;;;;;-2.04;100.00;98752.03;5026055;28;20444;-50
2022/12/14 07:06:13;;;;;;;0.77;0.63;;;;;;;-2.13;100.00;98750.31;5019895;28;20449;-51
2022/12/14 07:08:40;;;;;;;0.50;0.50;;;;;;;-2.13;100.00;98753.78;5025723;28;20476;-51
2022/12/14 07:11:09;;;;;;;0.97;0.97;;;;;;;-2.08;100.00;98756.34;5025620;28;20972;-50
2022/12/14 07:13:36;;;;;;;1.20;1.20;;;;;;;-2.20;100.00;98758.97;5019482;28;20447;-50
2022/12/14 07:16:04;;;;;;;1.23;1.23;;;;;;;-2.13;100.00;98761.56;5018974;28;20453;-51
2022/12/14 07:18:32;;;;;;;0.37;0.33;;;;;;;-1.99;100.00;98763.28;5032035;28;20468;-50
2022/12/14 07:21:01;;;;;;;0.93;0.93;;;;;;;-1.96;100.00;98768.47;5018994;28;20567;-51
2022/12/14 07:23:30;;;;;;;0.87;0.47;;;;;;;-1.98;100.00;98759.81;5019889;28;20941;-50
2022/12/14 07:26:02;;;;;;;0.60;0.60;;;;;;;-1.97;100.00;98766.75;5030601;28;20456;-51
2022/12/14 07:28:29;;;;;;;1.53;0.93;;;;;;;-1.87;100.00;98768.44;5021325;28;20471;-51
2022/12/14 07:30:57;;;;;;;0.57;0.50;;;;;;;-1.67;100.00;98761.41;5018871;28;20458;-51
2022/12/14 07:33:24;;;;;;;0.30;0.30;;;;;;;-1.64;100.00;98773.56;5032038;28;20456;-51
2022/12/14 07:36:00;;;;;;;0.33;0.33;;;;;;;-0.99;100.00;98778.38;5029001;28;20453;-52
2022/12/14 07:38:26;;;;;;;1.33;1.23;;;;;;;-0.73;100.00;98793.00;5023342;28;20913;-51
2022/12/14 07:40:53;;;;;;;0.60;0.60;;;;;;;-0.44;100.00;98805.78;5014181;28;20500;-52
2022/12/14 07:43:19;;;;;;;0.30;0.30;;;;;;;-0.42;100.00;98796.19;5023326;28;20448;-52
2022/12/14 07:45:46;;;;;;;1.07;0.50;;;;;;;-0.49;100.00;98798.00;5028356;28;20452;-52
2022/12/14 07:48:13;;;;;;;1.37;0.50;;;;;;;-0.47;100.00;98796.25;5032147;28;20510;-51
2022/12/14 07:50:39;;;;;;;1.97;0.77;;;;;;;-0.81;100.00;98800.03;5018956;28;20484;-51
2022/12/14 07:53:06;;;;;;;1.03;0.70;;;;;;;-0.79;100.00;98800.88;5025955;28;20452;-52
2022/12/14 07:55:34;;;;;;;0.47;0.47;;;;;;;-0.82;100.00;98793.03;5022420;28;20574;-51
2022/12/14 07:58:00;;;;;;;1.80;1.80;;;;;;;-1.02;100.00;98781.03;5023563;28;20452;-51
2022/12/14 08:00:26;;;;;;;0.73;0.73;;;;;;;-1.41;100.00;98786.47;5029134;28;20495;-52
2022/12/14 08:02:55;;;;;;;1.10;1.00;;;;;;;-1.68;100.00;98790.06;5022254;28;20538;-53
2022/12/14 08:05:22;;;;;;;1.50;0.80;;;;;;;-1.83;100.00;98783.19;5029780;28;20462;-52
2022/12/14 08:07:48;;;;;;;0.97;0.97;;;;;;;-1.50;100.00;98774.38;5028360;28;20451;-53
2022/12/14 08:10:15;;;;;;;3.83;1.07;;;;;;;-1.30;100.00;98761.22;5023036;28;20494;-52
2022/12/14 08:12:41;;;;;;;10.63;1.20;;;;;;;-1.31;100.00;98765.56;5023349;28;20452;-53
2022/12/14 08:15:08;;;;;;;1.10;1.07;;;;;;;-1.82;100.00;98761.47;5029168;28;20453;-53
2022/12/14 08:17:34;;;;;;;2.40;2.20;;;;;;;-1.58;100.00;98765.72;5028669;28;20452;-52
2022/12/14 08:20:00;;;;;;;2.60;2.40;;;;;;;-1.72;100.00;98754.50;5004642;28;20498;-52
2022/12/14 08:22:27;;;;;;;2.20;2.10;;;;;;;-1.66;100.00;98763.13;5022619;28;20455;-53
2022/12/14 08:24:53;;;;;;;2.90;1.53;;;;;;;-1.60;100.00;98750.09;5028795;28;20456;-52
2022/12/14 08:27:20;;;;;;;1.93;1.83;;;;;;;-1.85;100.00;98751.06;5028657;28;20458;-53
2022/12/14 08:29:46;;;;;;;1.93;1.83;;;;;;;-1.54;100.00;98743.97;5021930;28;20469;-52
2022/12/14 08:32:13;;;;;;;1.50;0.30;;;;;;;-1.54;100.00;98754.41;5035252;28;20953;-52
2022/12/14 08:34:39;;;;;;;0.80;0.80;;;;;;;-1.52;100.00;98744.81;5015490;28;20456;-53
2022/12/14 08:37:06;;;;;;;0.50;0.50;;;;;;;-1.53;100.00;98761.34;5028472;28;20817;-53
2022/12/14 08:39:32;;;;;;;1.33;1.33;;;;;;;-1.37;100.00;98764.72;5021586;28;20861;-52
2022/12/14 08:41:58;;;;;;;0.67;0.67;;;;;;;-1.41;100.00;98768.22;5022827;28;20455;-52
2022/12/14 08:44:25;;;;;;;0.80;0.60;;;;;;;-1.51;100.00;98770.00;5021790;28;20457;-52
2022/12/14 08:46:52;;;;;;;1.53;1.43;;;;;;;-1.28;100.00;98767.28;5048424;28;20505;-52
2022/12/14 08:49:18;;;;;;;0.50;0.50;;;;;;;-0.94;100.00;98761.00;5034978;28;20463;-53
2022/12/14 08:51:45;;;;;;;0.50;0.50;;;;;;;-0.92;100.00;98767.06;5028491;28;20542;-53
2022/12/14 08:54:11;;;;;;;2.67;1.20;;;;;;;-0.88;100.00;98760.06;5022294;28;20448;-53
2022/12/14 08:56:38;;;;;;;2.03;1.93;;;;;;;-0.80;100.00;98755.66;5021850;28;20480;-52
2022/12/14 08:59:04;;;;;;;0.47;0.47;;;;;;;-0.92;100.00;98748.81;5027518;28;20522;-53
2022/12/14 09:01:31;;;;;;;0.50;0.50;;;;;;;-0.90;100.00;98733.13;5028429;28;20498;-53
2022/12/14 09:04:06;;;;;;;1.13;1.13;;;;;;;-0.85;100.00;98731.34;5029503;28;21015;-52
2022/12/14 09:06:35;;;;;;;1.97;1.90;;;;;;;-0.50;100.00;98741.50;5020544;28;20464;-53
2022/12/14 09:09:03;;;;;;;1.57;0.97;;;;;;;-0.22;100.00;98749.03;5025371;28;20501;-52
2022/12/14 09:11:30;;;;;;;2.10;2.00;;;;;;;-0.42;100.00;98754.44;5028632;28;20503;-53
2022/12/14 09:13:56;;;;;;;3.87;0.90;;;;;;;0.06;100.00;98762.66;5024524;28;20842;-53
2022/12/14 09:16:27;;;;;;;1.63;1.53;;;;;;;-0.22;100.00;98768.19;5021443;28;20890;-52
2022/12/14 09:18:54;;;;;;;1.83;1.73;;;;;;;-0.05;100.00;98768.00;5024073;28;20523;-53
2022/12/14 09:21:21;;;;;;;3.27;1.63;;;;;;;-0.06;100.00;98766.28;5027722;28;20859;-52
2022/12/14 09:23:47;;;;;;;3.47;0.60;;;;;;;-0.19;100.00;98775.13;5025410;28;20450;-55
2022/12/14 09:26:22;;;;;;;1.07;0.97;;;;;;;-0.18;100.00;98759.44;5020769;28;20454;-52
2022/12/14 09:28:54;;;;;;;0.57;0.57;;;;;;;-0.26;100.00;98761.28;5022306;28;20989;-53
2022/12/14 09:31:22;;;;;;;1.97;1.43;;;;;;;-0.17;100.00;98762.91;5027695;28;20449;-53
2022/12/14 09:33:49;;;;;;;1.43;1.43;;;;;;;0.42;100.00;98771.81;5027677;28;20451;-53
2022/12/14 09:36:19;;;;;;;1.53;1.53;;;;;;;0.12;100.00;98768.66;5020800;28;20452;-53
2022/12/14 09:38:45;;;;;;;3.10;1.13;;;;;;;0.32;100.00;98772.81;5021009;28;20489;-52
2022/12/14 09:41:32;;;;;;;1.03;1.03;;;;;;;0.32;100.00;98778.91;5021618;28;20538;-53
2022/12/14 09:44:09;;;;;;;1.53;1.43;;;;;;;0.13;100.00;98774.75;5020523;28;20999;-53
2022/12/14 09:46:43;;;;;;;1.00;0.67;;;;;;;-0.18;100.00;98775.09;5038955;28;20454;-53
2022/12/14 09:49:41;;;;;;;4.17;2.83;;;;;;;-0.37;100.00;98774.41;5029280;28;20476;-53
2022/12/14 09:52:16;;;;;;;0.93;0.93;;;;;;;0.12;100.00;98773.91;5002256;28;20498;-52
2022/12/14 09:54:45;;;;;;;0.90;0.90;;;;;;;-0.33;99.78;98767.41;5022952;28;20452;-53
2022/12/14 09:57:38;;;;;;;2.30;2.13;;;;;;;-0.61;100.00;98769.41;5027473;28;20444;-53
2022/12/14 10:00:13;;;;;;;2.80;1.33;;;;;;;-0.70;100.00;98772.09;5026822;28;20495;-52
2022/12/14 10:03:18;;;;;;;0.30;0.20;;;;;;;-0.78;100.00;98772.16;5023712;28;20459;-52
2022/12/14 10:06:00;;;;;;;1.83;1.73;;;;;;;-0.53;100.00;98757.19;5013970;28;20444;-53
2022/12/14 10:08:37;;;;;;;1.83;1.07;;;;;;;-0.43;100.00;98760.53;5026935;28;20472;-53
2022/12/14 10:11:22;;;;;;;1.17;1.10;;;;;;;-0.75;100.00;98755.63;5025948;28;20444;-53
2022/12/14 10:14:00;;;;;;;1.00;1.00;;;;;;;-0.38;100.00;98757.03;5025322;28;20449;-53
2022/12/14 10:16:36;;;;;;;0.70;0.70;;;;;;;-0.21;100.00;98742.94;5026796;28;20452;-53
2022/12/14 10:19:27;;;;;;;0.63;0.63;;;;;;;-0.14;100.00;98744.59;5025171;28;20468;-53
2022/12/14 10:22:01;;;;;;;1.83;1.73;;;;;;;-0.22;99.99;98746.44;5025741;28;20852;-53
2022/12/14 10:24:49;;;;;;;0.83;0.80;;;;;;;-0.24;100.00;98742.97;5026890;28;20447;-53
2022/12/14 10:27:25;;;;;;;3.70;3.17;;;;;;;0.04;100.00;98748.78;5025298;28;20913;-53
2022/12/14 10:29:57;;;;;;;3.37;3.10;;;;;;;0.02;100.00;98748.78;5019711;28;20889;-53
2022/12/14 10:32:32;;;;;;;4.13;1.67;;;;;;;-0.03;99.64;98754.03;5020920;28;20965;-53
2022/12/14 10:35:15;;;;;;;0.97;0.97;;;;;;;0.08;99.47;98756.53;5024776;28;20805;-53
2022/12/14 10:37:52;;;;;;;1.27;1.27;;;;;;;0.15;99.91;98757.34;5026648;28;20452;-52
2022/12/14 10:40:27;;;;;;;1.70;1.60;;;;;;;-0.07;100.00;98754.09;5025651;28;21008;-53
2022/12/14 10:43:17;;;;;;;5.50;3.00;;;;;;;-0.32;99.55;98748.25;5025634;28;20911;-53
2022/12/14 10:46:01;;;;;;;0.80;0.80;;;;;;;-0.46;100.00;98752.75;5029883;28;20447;-53
2022/12/14 10:48:51;;;;;;;0.97;0.97;;;;;;;0.34;100.00;98755.38;5032583;28;20498;-55
2022/12/14 10:51:25;;;;;;;0.77;0.77;;;;;;;0.05;100.00;98758.31;5019079;28;20445;-53
2022/12/14 10:54:01;;;;;;;1.23;1.23;;;;;;;0.04;100.00;98762.69;5026215;28;20451;-53
2022/12/14 10:56:31;;;;;;;9.87;0.87;;;;;;;0.00;100.00;98753.16;5025236;28;20474;-54
2022/12/14 10:59:24;;;;;;;0.40;0.40;;;;;;;-0.08;100.00;98752.38;5019217;28;20467;-53
2022/12/14 11:02:15;;;;;;;1.10;1.10;;;;;;;0.45;100.00;98754.34;5019185;28;20570;-54
2022/12/14 11:04:54;;;;;;;0.53;0.53;;;;;;;-0.21;100.00;98764.69;4995603;28;20516;-53
2022/12/14 11:07:24;;;;;;;2.33;1.87;;;;;;;-0.34;100.00;98750.91;5020843;28;20448;-53
2022/12/14 11:09:51;;;;;;;2.30;2.20;;;;;;;-0.09;100.00;98759.34;5019252;28;20487;-53
2022/12/14 11:12:27;;;;;;;0.57;0.57;;;;;;;-0.24;100.00;98749.06;5032706;28;20448;-53
2022/12/14 11:15:00;;;;;;;0.60;0.60;;;;;;;-0.16;100.00;98747.22;5018957;28;20454;-53
2022/12/14 11:17:34;;;;;;;1.37;1.37;;;;;;;-0.21;100.00;98741.19;5021749;28;20529;-53
2022/12/14 11:20:14;;;;;;;3.53;3.43;;;;;;;-0.08;100.00;98744.53;5025403;28;20475;-53
2022/12/14 11:22:49;;;;;;;1.07;1.07;;;;;;;-0.09;100.00;98738.47;5025945;28;20444;-53
2022/12/14 11:25:41;;;;;;;3.27;1.40;;;;;;;0.04;100.00;98728.72;5021465;28;20868;-53
2022/12/14 11:28:52;;;;;;;2.30;2.10;;;;;;;0.33;100.00;98732.75;5018370;28;20851;-54
2022/12/14 11:31:39;;;;;;;2.57;1.97;;;;;;;-0.01;100.00;98722.69;4997416;28;20455;-53
2022/12/14 11:34:38;;;;;;;0.70;0.70;;;;;;;-0.10;100.00;98728.03;5031009;28;20932;-53
2022/12/14 11:37:20;;;;;;;2.03;1.97;;;;;;;-0.28;100.00;98726.47;5023578;28;20456;-55
2022/12/14 11:40:06;;;;;;;3.93;1.90;;;;;;;-0.18;100.00;98735.94;5020165;28;20581;-53
2022/12/14 11:42:32;;;;;;;2.73;0.60;;;;;;;-0.23;100.00;98736.88;5018788;28;20455;-53
2022/12/14 11:45:38;;;;;;;1.30;1.23;;;;;;;-0.18;100.00;98743.75;5029305;28;20451;-53
2022/12/14 11:48:17;;;;;;;0.40;0.40;;;;;;;-0.46;100.00;98740.56;4913612;29;20480;-54
2022/12/14 11:50:46;;;;;;;7.57;1.80;;;;;;;-0.58;100.00;98743.28;4926700;29;20441;-53
2022/12/14 11:53:17;;;;;;;1.30;1.30;;;;;;;-0.25;100.00;98730.81;4962284;28;20855;-53
2022/12/14 11:55:56;;;;;;;3.60;0.87;;;;;;;-0.11;100.00;98740.22;5018775;28;20952;-53
2022/12/14 11:58:27;;;;;;;0.73;0.73;;;;;;;-0.21;100.00;98743.81;5018640;28;20471;-53
2022/12/14 12:00:59;;;;;;;3.27;1.50;;;;;;;-0.32;100.00;98743.91;5023702;28;20499;-53
2022/12/14 12:03:35;;;;;;;1.23;0.83;;;;;;;-0.22;100.00;98736.00;5022573;28;20440;-53
2022/12/14 12:06:09;;;;;;;2.43;2.33;;;;;;;-0.13;100.00;98736.78;5021118;28;20535;-53
2022/12/14 12:08:38;;;;;;;1.60;1.50;;;;;;;-0.13;100.00;98731.53;5025604;28;20475;-53